Time;durP1;ratioP1;P1;durP2;ratioP2;P2;SDS_P1;SDS_P2;PMS_P1;PMS_P2;Temp;Humidity;BMP_temperature;BMP_pressure;BME280_temperature;BME280_humidity;BME280_pressure;Samples;Min_cycle;Max_cycle;Signal;HPM_P1;HPM_P2
2023/09/11 00:03:02;;;;;;;35.70;31.50;;;;;;;;;;10256896;28;20048;-69
2023/09/11 00:07:59;;;;;;;38.92;30.55;;;;;;;;;;10262386;28;20453;-69
2023/09/11 00:12:55;;;;;;;41.03;33.00;;;;;;;;;;10258284;28;20072;-69
2023/09/11 00:17:51;;;;;;;40.55;33.35;;;;;;;;;;10261131;28;20064;-69
2023/09/11 00:22:48;;;;;;;38.70;34.53;;;;;;;;;;10260422;28;20536;-69
2023/09/11 00:27:45;;;;;;;40.53;35.03;;;;;;;;;;10261635;28;20103;-68
2023/09/11 00:32:41;;;;;;;48.13;34.75;;;;;;;;;;10253453;28;20052;-68
2023/09/11 00:37:37;;;;;;;38.00;32.80;;;;;;;;;;10258371;28;20049;-68
2023/09/11 00:42:34;;;;;;;38.75;33.47;;;;;;;;;;10257557;28;20134;-69
2023/09/11 00:47:30;;;;;;;41.78;33.60;;;;;;;;;;10257662;28;20049;-69
2023/09/11 00:52:29;;;;;;;39.05;33.03;;;;;;;;;;10265927;28;20076;-69
2023/09/11 00:57:26;;;;;;;41.10;32.08;;;;;;;;;;10267333;28;20520;-69
2023/09/11 01:02:22;;;;;;;38.90;31.98;;;;;;;;;;10261888;28;20457;-69
2023/09/11 01:07:19;;;;;;;42.10;33.22;;;;;;;;;;10259430;28;20053;-69
2023/09/11 01:12:15;;;;;;;44.17;35.97;;;;;;;;;;10265191;28;20458;-69
2023/09/11 01:17:12;;;;;;;40.65;33.00;;;;;;;;;;10270041;28;20061;-69
2023/09/11 01:22:08;;;;;;;37.15;31.95;;;;;;;;;;10271376;28;20132;-69
2023/09/11 01:27:07;;;;;;;38.55;32.30;;;;;;;;;;10259492;28;20053;-69
2023/09/11 01:32:05;;;;;;;38.63;31.98;;;;;;;;;;10266461;28;20417;-69
2023/09/11 01:37:02;;;;;;;43.30;33.45;;;;;;;;;;10271906;28;20083;-68
2023/09/11 01:42:00;;;;;;;35.40;31.17;;;;;;;;;;10264682;28;20932;-69
2023/09/11 01:46:57;;;;;;;35.80;31.17;;;;;;;;;;10268852;28;20075;-68
2023/09/11 01:51:53;;;;;;;40.35;33.10;;;;;;;;;;10241716;28;20090;-68
2023/09/11 01:56:50;;;;;;;37.28;31.65;;;;;;;;;;10283963;28;20098;-68
2023/09/11 02:01:46;;;;;;;38.83;34.35;;;;;;;;;;10267283;28;20057;-69
2023/09/11 02:06:43;;;;;;;42.72;34.53;;;;;;;;;;10250144;28;20055;-69
2023/09/11 02:11:39;;;;;;;40.60;34.35;;;;;;;;;;10273477;28;20041;-69
2023/09/11 02:16:36;;;;;;;41.83;35.17;;;;;;;;;;10273528;28;20091;-69
2023/09/11 02:21:32;;;;;;;39.75;31.95;;;;;;;;;;10274724;28;20088;-69
2023/09/11 02:26:28;;;;;;;38.97;33.95;;;;;;;;;;10272888;28;20518;-69
2023/09/11 02:31:25;;;;;;;41.15;35.00;;;;;;;;;;10268983;28;20056;-68
2023/09/11 02:36:21;;;;;;;43.80;33.80;;;;;;;;;;10252783;28;20131;-69
2023/09/11 02:41:18;;;;;;;41.00;34.80;;;;;;;;;;10264419;28;20535;-68
2023/09/11 02:46:14;;;;;;;49.20;33.65;;;;;;;;;;10274723;28;20057;-68
2023/09/11 02:51:11;;;;;;;45.30;34.42;;;;;;;;;;10265836;28;20053;-68
2023/09/11 02:56:07;;;;;;;45.53;35.53;;;;;;;;;;10263641;28;20052;-69
2023/09/11 03:01:04;;;;;;;44.17;35.67;;;;;;;;;;10259819;28;20057;-68
2023/09/11 03:06:01;;;;;;;38.42;34.22;;;;;;;;;;10266677;28;20064;-69
2023/09/11 03:11:05;;;;;;;43.97;35.08;;;;;;;;;;10261238;28;20187;-68
2023/09/11 03:16:08;;;;;;;43.55;35.05;;;;;;;;;;10269563;28;20089;-69
2023/09/11 03:21:05;;;;;;;42.97;35.08;;;;;;;;;;10258832;28;20115;-69
2023/09/11 03:26:02;;;;;;;42.63;34.30;;;;;;;;;;10253840;28;20118;-68
2023/09/11 03:31:01;;;;;;;44.35;34.80;;;;;;;;;;10263688;28;20048;-69
2023/09/11 03:35:59;;;;;;;37.60;33.67;;;;;;;;;;10255380;28;20051;-71
2023/09/11 03:40:56;;;;;;;48.05;37.78;;;;;;;;;;10230707;28;20417;-71
2023/09/11 03:45:52;;;;;;;42.97;33.78;;;;;;;;;;10246044;28;20050;-71
2023/09/11 03:50:49;;;;;;;42.47;34.03;;;;;;;;;;10244551;28;20041;-72
2023/09/11 03:55:59;;;;;;;46.00;38.47;;;;;;;;;;10278950;22;20048;-72
2023/09/11 04:00:55;;;;;;;40.85;34.63;;;;;;;;;;10255963;28;20091;-72
2023/09/11 04:05:51;;;;;;;41.47;34.85;;;;;;;;;;10294980;28;20048;-72
2023/09/11 04:10:48;;;;;;;43.70;36.53;;;;;;;;;;10284622;28;20049;-71
2023/09/11 04:15:44;;;;;;;43.92;36.53;;;;;;;;;;10285113;28;20069;-72
2023/09/11 04:20:46;;;;;;;47.50;35.20;;;;;;;;;;10298229;28;20408;-72
2023/09/11 04:25:43;;;;;;;42.67;33.60;;;;;;;;;;10299559;28;20060;-72
2023/09/11 04:30:40;;;;;;;44.78;35.45;;;;;;;;;;10300652;28;20752;-72
2023/09/11 04:35:36;;;;;;;46.60;38.38;;;;;;;;;;10296387;28;20199;-71
2023/09/11 04:40:32;;;;;;;43.88;36.58;;;;;;;;;;10295080;28;20045;-72
2023/09/11 04:45:28;;;;;;;43.75;36.60;;;;;;;;;;10324250;22;20523;-71
2023/09/11 04:50:25;;;;;;;39.75;35.13;;;;;;;;;;10258433;28;20045;-71
2023/09/11 04:55:22;;;;;;;40.35;35.88;;;;;;;;;;10247882;28;20061;-71
2023/09/11 05:00:18;;;;;;;40.30;35.60;;;;;;;;;;10264796;28;20115;-71
2023/09/11 05:05:15;;;;;;;40.38;34.63;;;;;;;;;;10253448;28;20460;-71
2023/09/11 05:10:14;;;;;;;46.58;35.50;;;;;;;;;;10252065;28;20513;-70
2023/09/11 05:15:11;;;;;;;42.03;34.63;;;;;;;;;;10268745;28;20053;-70
2023/09/11 05:20:07;;;;;;;38.90;34.08;;;;;;;;;;10258938;28;20068;-70
2023/09/11 05:25:03;;;;;;;37.72;33.45;;;;;;;;;;10266876;28;20045;-70
2023/09/11 05:30:00;;;;;;;39.15;34.95;;;;;;;;;;10261640;28;20052;-70
2023/09/11 05:34:56;;;;;;;38.53;34.42;;;;;;;;;;10260594;28;20072;-70
2023/09/11 05:39:52;;;;;;;33.97;30.40;;;;;;;;;;10258194;28;20432;-70
2023/09/11 05:44:49;;;;;;;38.85;33.50;;;;;;;;;;10266531;28;20053;-70
2023/09/11 05:49:46;;;;;;;37.85;33.72;;;;;;;;;;10267882;28;20153;-71
2023/09/11 05:54:43;;;;;;;35.33;31.77;;;;;;;;;;10240276;28;20140;-73
2023/09/11 05:59:40;;;;;;;35.65;31.15;;;;;;;;;;10232959;28;20586;-70
2023/09/11 06:04:36;;;;;;;37.97;32.38;;;;;;;;;;10267477;28;20567;-68
2023/09/11 06:09:32;;;;;;;39.50;31.58;;;;;;;;;;10261886;28;20155;-69
2023/09/11 06:14:29;;;;;;;33.33;29.85;;;;;;;;;;10268743;28;20047;-69
2023/09/11 06:19:25;;;;;;;30.83;27.70;;;;;;;;;;10256855;28;20088;-71
2023/09/11 06:24:22;;;;;;;32.95;29.63;;;;;;;;;;10273633;22;20488;-69
2023/09/11 06:29:18;;;;;;;34.78;31.08;;;;;;;;;;10262450;28;20080;-70
2023/09/11 06:34:14;;;;;;;34.70;30.25;;;;;;;;;;10258307;28;20569;-69
2023/09/11 06:39:11;;;;;;;34.92;31.20;;;;;;;;;;10265569;28;20669;-70
2023/09/11 06:44:07;;;;;;;33.00;29.58;;;;;;;;;;10253615;28;20481;-70
2023/09/11 06:49:04;;;;;;;33.95;29.63;;;;;;;;;;10246463;28;20080;-70
2023/09/11 06:54:01;;;;;;;34.58;29.98;;;;;;;;;;10262388;28;20693;-70
2023/09/11 06:58:57;;;;;;;35.10;30.10;;;;;;;;;;10256723;28;20057;-70
2023/09/11 07:03:53;;;;;;;34.13;30.50;;;;;;;;;;10245477;28;20420;-70
2023/09/11 07:08:50;;;;;;;33.63;30.02;;;;;;;;;;10252318;28;20069;-70
2023/09/11 07:13:47;;;;;;;32.92;29.52;;;;;;;;;;10254220;28;20051;-70
2023/09/11 07:18:43;;;;;;;32.95;28.88;;;;;;;;;;10256898;28;20516;-70
2023/09/11 07:23:41;;;;;;;30.25;27.10;;;;;;;;;;10262674;28;20484;-70
2023/09/11 07:28:57;;;;;;;32.13;28.17;;;;;;;;;;10268812;28;20047;-71
2023/09/11 07:33:53;;;;;;;29.80;26.75;;;;;;;;;;10258072;28;20053;-71
2023/09/11 07:38:50;;;;;;;31.83;28.58;;;;;;;;;;10258461;28;20049;-71
2023/09/11 07:48:57;;;;;;;29.58;26.63;;;;;;;;;;9897923;22;20050;-70
2023/09/11 07:53:56;;;;;;;29.05;26.25;;;;;;;;;;10165219;28;20050;-70
2023/09/11 07:58:53;;;;;;;28.30;25.25;;;;;;;;;;10172119;28;20073;-70
2023/09/11 08:09:03;;;;;;;31.93;27.53;;;;;;;;;;10222343;23;20061;-70
2023/09/11 08:13:59;;;;;;;28.65;25.75;;;;;;;;;;10214855;28;20419;-70
2023/09/11 08:18:56;;;;;;;29.35;24.85;;;;;;;;;;10231323;28;20057;-70
2023/09/11 08:30:09;;;;;;;26.90;24.00;;;;;;;;;;4650903;26;20121;-71
2023/09/11 08:40:13;;;;;;;25.10;22.35;;;;;;;;;;2694957;26;20605;-70
2023/09/11 08:45:10;;;;;;;24.70;21.92;;;;;;;;;;10421752;22;20087;-70
2023/09/11 08:50:07;;;;;;;24.05;21.83;;;;;;;;;;10284752;28;20053;-71
2023/09/11 08:55:07;;;;;;;24.88;19.77;;;;;;;;;;10418124;22;20606;-71
2023/09/11 09:00:06;;;;;;;26.23;19.20;;;;;;;;;;10262247;28;20052;-71
2023/09/11 09:05:03;;;;;;;20.83;18.65;;;;;;;;;;10257284;28;20053;-71
2023/09/11 09:10:02;;;;;;;20.48;18.40;;;;;;;;;;10262337;28;20044;-71
2023/09/11 09:26:09;;;;;;;18.02;16.02;;;;;;;;;;10294018;28;20115;-71
2023/09/11 09:31:06;;;;;;;17.75;15.95;;;;;;;;;;10292363;28;20072;-71
2023/09/11 09:36:02;;;;;;;16.25;14.65;;;;;;;;;;10286564;22;20059;-71
2023/09/11 09:41:07;;;;;;;16.95;14.68;;;;;;;;;;10258267;28;20527;-71
2023/09/11 09:51:15;;;;;;;17.05;14.93;;;;;;;;;;10306639;22;20048;-71
2023/09/11 09:56:13;;;;;;;15.60;13.95;;;;;;;;;;10298513;28;20106;-71
2023/09/11 10:01:11;;;;;;;14.38;12.98;;;;;;;;;;10303294;28;20072;-71
2023/09/11 10:06:08;;;;;;;15.38;13.07;;;;;;;;;;10319029;23;20496;-71
2023/09/11 10:11:05;;;;;;;15.55;14.23;;;;;;;;;;10241533;28;20049;-71
2023/09/11 10:21:12;;;;;;;16.27;14.75;;;;;;;;;;10754941;22;20080;-71
2023/09/11 10:26:10;;;;;;;14.73;12.90;;;;;;;;;;10266253;28;20699;-70
2023/09/11 10:31:14;;;;;;;19.30;14.38;;;;;;;;;;10275181;28;20152;-70
2023/09/11 10:36:12;;;;;;;14.73;13.32;;;;;;;;;;10358698;23;20045;-70
2023/09/11 10:41:11;;;;;;;14.32;13.02;;;;;;;;;;10230196;28;20056;-70
2023/09/11 10:46:33;;;;;;;15.93;13.52;;;;;;;;;;10231834;28;20085;-70
2023/09/11 10:51:30;;;;;;;15.95;12.95;;;;;;;;;;10230873;28;20049;-70
2023/09/11 10:56:33;;;;;;;15.95;13.73;;;;;;;;;;10218132;28;20049;-73
2023/09/11 11:06:45;;;;;;;16.63;13.88;;;;;;;;;;10307292;23;20038;-71
2023/09/11 11:11:42;;;;;;;18.55;12.43;;;;;;;;;;10242356;28;20049;-70
2023/09/11 11:16:39;;;;;;;18.30;12.57;;;;;;;;;;10207753;28;20136;-70
2023/09/11 11:26:48;;;;;;;;;;;;;;;;;;7891266;23;20037;-70
2023/09/11 11:31:46;;;;;;;16.63;12.32;;;;;;;;;;10250459;28;19935;-70
2023/09/11 11:36:44;;;;;;;17.00;11.82;;;;;;;;;;10196608;28;20049;-70
2023/09/11 11:41:40;;;;;;;18.00;12.52;;;;;;;;;;10229493;28;20526;-71
2023/09/11 11:46:39;;;;;;;16.63;12.40;;;;;;;;;;10221104;28;20053;-71
2023/09/11 11:51:35;;;;;;;18.13;15.00;;;;;;;;;;10219144;28;20050;-71
2023/09/11 11:56:32;;;;;;;14.90;13.25;;;;;;;;;;10212783;28;20686;-70
2023/09/11 12:06:39;;;;;;;17.13;14.10;;;;;;;;;;10193364;23;20042;-70
2023/09/11 12:11:39;;;;;;;23.98;14.50;;;;;;;;;;10143007;28;20047;-70
2023/09/11 12:16:35;;;;;;;18.23;13.98;;;;;;;;;;10140148;28;20065;-71
2023/09/11 12:26:52;;;;;;;15.93;14.35;;;;;;;;;;9446399;23;20074;-70
2023/09/11 12:31:49;;;;;;;15.43;14.10;;;;;;;;;;10186740;28;20507;-71
2023/09/11 12:36:46;;;;;;;20.27;13.57;;;;;;;;;;10128366;28;20063;-70
2023/09/11 12:46:48;;;;;;;24.90;14.18;;;;;;;;;;10143027;28;20526;-71
2023/09/11 12:56:49;;;;;;;15.65;14.25;;;;;;;;;;10356467;23;20092;-71
2023/09/11 13:01:51;;;;;;;16.30;13.80;;;;;;;;;;10209605;28;20411;-71
2023/09/11 13:06:48;;;;;;;17.58;14.68;;;;;;;;;;10205494;28;20042;-71
2023/09/11 13:27:19;;;;;;;15.80;14.13;;;;;;;;;;10605897;22;20053;-71
2023/09/11 13:32:16;;;;;;;15.13;13.65;;;;;;;;;;10224296;28;20064;-71
2023/09/11 13:37:12;;;;;;;16.33;13.90;;;;;;;;;;10210807;28;20761;-71
2023/09/11 13:42:09;;;;;;;17.17;13.93;;;;;;;;;;10213195;28;20653;-71
2023/09/11 13:47:06;;;;;;;21.88;13.23;;;;;;;;;;10214028;28;20093;-71
2023/09/11 13:52:02;;;;;;;17.98;12.73;;;;;;;;;;10215761;28;20471;-70
2023/09/11 13:56:58;;;;;;;13.48;12.27;;;;;;;;;;10238255;28;20100;-69
2023/09/11 14:01:55;;;;;;;14.15;12.00;;;;;;;;;;10227470;28;20045;-70
2023/09/11 14:06:52;;;;;;;16.15;11.80;;;;;;;;;;10225576;28;21184;-70
2023/09/11 14:11:48;;;;;;;17.85;12.25;;;;;;;;;;10223178;28;22103;-69
2023/09/11 14:16:44;;;;;;;13.68;11.40;;;;;;;;;;10236653;28;20049;-70
2023/09/11 14:21:41;;;;;;;17.55;11.45;;;;;;;;;;10219886;28;20468;-70
2023/09/11 14:26:37;;;;;;;11.60;10.48;;;;;;;;;;10249149;28;20044;-70
2023/09/11 14:31:34;;;;;;;20.25;10.63;;;;;;;;;;10264727;28;20065;-70
2023/09/11 14:36:30;;;;;;;19.13;11.55;;;;;;;;;;10266311;28;20096;-70
2023/09/11 14:41:27;;;;;;;18.20;10.70;;;;;;;;;;10264296;28;20040;-70
2023/09/11 14:46:25;;;;;;;17.13;11.07;;;;;;;;;;10267421;28;20183;-70
2023/09/11 14:51:22;;;;;;;15.43;10.52;;;;;;;;;;10250571;28;20057;-70
2023/09/11 14:56:18;;;;;;;24.08;10.60;;;;;;;;;;10256390;28;20045;-70
2023/09/11 15:01:15;;;;;;;16.02;10.63;;;;;;;;;;10254019;28;20049;-70
2023/09/11 15:06:11;;;;;;;19.42;10.80;;;;;;;;;;10265755;28;20488;-70
2023/09/11 15:11:08;;;;;;;14.00;9.98;;;;;;;;;;10263069;28;20136;-70
2023/09/11 15:16:04;;;;;;;25.38;10.77;;;;;;;;;;10262372;28;20045;-71
2023/09/11 15:21:02;;;;;;;19.20;10.50;;;;;;;;;;10268749;28;20108;-70
2023/09/11 15:25:58;;;;;;;16.38;10.32;;;;;;;;;;10295044;22;20051;-70
2023/09/11 15:30:55;;;;;;;18.60;9.90;;;;;;;;;;10183105;28;20053;-70
2023/09/11 15:35:58;;;;;;;16.08;10.48;;;;;;;;;;10177056;28;20049;-70
2023/09/11 15:41:02;;;;;;;18.35;10.55;;;;;;;;;;10175554;28;20516;-70
2023/09/11 15:45:59;;;;;;;20.17;10.27;;;;;;;;;;10182964;28;20559;-71
2023/09/11 15:50:56;;;;;;;16.85;10.15;;;;;;;;;;10182147;28;20137;-70
2023/09/11 15:55:53;;;;;;;19.65;9.93;;;;;;;;;;10323342;23;20056;-69
2023/09/11 16:00:49;;;;;;;22.83;10.63;;;;;;;;;;10259795;28;20516;-70
2023/09/11 16:05:46;;;;;;;17.15;10.02;;;;;;;;;;10255183;28;20055;-70
2023/09/11 16:10:43;;;;;;;21.80;9.82;;;;;;;;;;10249346;28;20423;-71
2023/09/11 16:15:40;;;;;;;18.27;9.73;;;;;;;;;;10241232;28;20481;-71
2023/09/11 16:20:37;;;;;;;18.55;10.30;;;;;;;;;;10265342;28;20045;-71
2023/09/11 16:25:36;;;;;;;17.00;9.20;;;;;;;;;;10259609;28;20056;-69
2023/09/11 16:30:33;;;;;;;13.65;9.85;;;;;;;;;;10263305;28;20076;-70
2023/09/11 16:35:30;;;;;;;16.00;9.93;;;;;;;;;;10280371;28;20134;-71
2023/09/11 16:40:27;;;;;;;17.27;9.88;;;;;;;;;;10273335;28;20653;-71
2023/09/11 16:45:23;;;;;;;14.88;9.73;;;;;;;;;;10273395;28;20664;-71
2023/09/11 16:50:22;;;;;;;18.98;9.68;;;;;;;;;;10258827;28;20045;-70
2023/09/11 16:55:19;;;;;;;17.00;10.18;;;;;;;;;;10276579;28;20060;-71
2023/09/11 17:00:15;;;;;;;16.73;9.88;;;;;;;;;;10266144;28;20060;-71
2023/09/11 17:05:12;;;;;;;19.10;10.30;;;;;;;;;;10267402;28;20045;-70
2023/09/11 17:10:09;;;;;;;19.20;10.48;;;;;;;;;;10270063;28;20053;-71
2023/09/11 17:15:06;;;;;;;14.98;10.18;;;;;;;;;;10275579;28;20064;-71
2023/09/11 17:20:03;;;;;;;16.23;10.00;;;;;;;;;;10279977;28;20143;-70
2023/09/11 17:24:59;;;;;;;18.00;10.57;;;;;;;;;;10275653;28;20532;-71
2023/09/11 17:29:56;;;;;;;14.07;10.60;;;;;;;;;;10256736;28;20537;-70
2023/09/11 17:34:52;;;;;;;13.50;11.48;;;;;;;;;;10258331;28;20072;-71
2023/09/11 17:39:49;;;;;;;16.63;11.18;;;;;;;;;;10272438;28;20408;-70
2023/09/11 17:44:48;;;;;;;17.67;11.50;;;;;;;;;;10279588;28;20051;-70
2023/09/11 17:49:45;;;;;;;14.52;11.63;;;;;;;;;;10252744;28;20124;-70
2023/09/11 17:54:41;;;;;;;16.75;11.57;;;;;;;;;;10266988;28;20048;-70
2023/09/11 17:59:39;;;;;;;18.83;11.63;;;;;;;;;;10276685;28;20076;-70
2023/09/11 18:04:35;;;;;;;19.20;11.95;;;;;;;;;;10278380;28;20558;-71
2023/09/11 18:09:32;;;;;;;14.80;12.32;;;;;;;;;;10263124;28;20114;-70
2023/09/11 18:14:28;;;;;;;27.98;14.38;;;;;;;;;;10257001;28;20543;-70
2023/09/11 18:19:25;;;;;;;18.55;14.38;;;;;;;;;;10259206;28;20052;-71
2023/09/11 18:24:24;;;;;;;23.77;13.32;;;;;;;;;;10251671;28;20143;-71
2023/09/11 18:29:23;;;;;;;23.70;14.82;;;;;;;;;;10261040;28;20049;-70
2023/09/11 18:34:21;;;;;;;20.40;14.75;;;;;;;;;;10255582;28;20416;-71
2023/09/11 18:39:19;;;;;;;19.63;14.63;;;;;;;;;;10248964;28;20057;-72
2023/09/11 18:44:19;;;;;;;25.00;16.80;;;;;;;;;;10263739;28;20500;-71
2023/09/11 18:49:16;;;;;;;24.38;16.55;;;;;;;;;;10254702;28;20134;-70
2023/09/11 18:54:15;;;;;;;28.88;17.33;;;;;;;;;;10260645;28;20155;-71
2023/09/11 18:59:12;;;;;;;30.95;16.92;;;;;;;;;;10269832;28;20106;-70
2023/09/11 19:04:12;;;;;;;22.63;16.05;;;;;;;;;;10263599;28;20048;-69
2023/09/11 19:09:10;;;;;;;27.15;17.80;;;;;;;;;;10243381;28;20131;-69
2023/09/11 19:14:06;;;;;;;25.73;17.92;;;;;;;;;;10242902;28;20127;-69
2023/09/11 19:19:09;;;;;;;26.02;16.73;;;;;;;;;;10267681;28;20045;-71
2023/09/11 19:24:08;;;;;;;24.52;16.60;;;;;;;;;;10259002;28;20087;-70
2023/09/11 19:29:05;;;;;;;20.00;15.52;;;;;;;;;;10247308;28;20053;-70
2023/09/11 19:34:02;;;;;;;25.42;16.00;;;;;;;;;;10245475;28;20068;-70
2023/09/11 19:38:59;;;;;;;20.08;14.32;;;;;;;;;;10251608;28;20052;-71
2023/09/11 19:43:55;;;;;;;26.55;15.23;;;;;;;;;;10263605;28;20041;-71
2023/09/11 19:48:51;;;;;;;24.77;16.05;;;;;;;;;;10253112;28;20118;-70
2023/09/11 19:53:48;;;;;;;26.42;15.80;;;;;;;;;;10262932;28;20727;-71
2023/09/11 19:58:44;;;;;;;18.05;13.70;;;;;;;;;;10260906;28;21465;-71
2023/09/11 20:03:41;;;;;;;15.73;13.70;;;;;;;;;;10244409;28;20057;-71
2023/09/11 20:08:37;;;;;;;22.73;14.48;;;;;;;;;;10242367;28;20092;-66
2023/09/11 20:13:34;;;;;;;25.95;13.38;;;;;;;;;;10234220;28;20040;-67
2023/09/11 20:18:30;;;;;;;24.65;14.07;;;;;;;;;;10260392;28;20041;-68
2023/09/11 20:23:26;;;;;;;19.08;13.52;;;;;;;;;;10258766;28;20132;-68
2023/09/11 20:28:24;;;;;;;21.77;13.80;;;;;;;;;;10261598;28;20531;-67
2023/09/11 20:33:20;;;;;;;26.25;13.13;;;;;;;;;;10262594;28;20052;-67
2023/09/11 20:38:20;;;;;;;20.42;12.35;;;;;;;;;;10263283;28;20049;-68
2023/09/11 20:43:16;;;;;;;16.70;13.50;;;;;;;;;;10249572;28;20732;-68
2023/09/11 20:48:13;;;;;;;20.05;12.38;;;;;;;;;;10268090;28;20098;-68
2023/09/11 20:53:09;;;;;;;14.77;12.27;;;;;;;;;;10253424;28;20053;-67
2023/09/11 20:58:05;;;;;;;16.27;12.98;;;;;;;;;;10260846;28;20048;-67
2023/09/11 21:03:02;;;;;;;18.30;12.38;;;;;;;;;;10261246;28;20049;-67
2023/09/11 21:07:58;;;;;;;15.32;12.27;;;;;;;;;;10266657;28;20054;-68
2023/09/11 21:12:56;;;;;;;14.25;10.88;;;;;;;;;;10266226;28;20148;-68
2023/09/11 21:17:53;;;;;;;16.70;11.45;;;;;;;;;;10267794;28;20499;-67
2023/09/11 21:22:49;;;;;;;18.08;10.82;;;;;;;;;;10257149;28;20184;-67
2023/09/11 21:27:46;;;;;;;16.13;10.18;;;;;;;;;;10252674;28;20144;-67
2023/09/11 21:32:42;;;;;;;14.32;10.75;;;;;;;;;;10265868;28;20045;-67
2023/09/11 21:37:39;;;;;;;14.60;11.70;;;;;;;;;;10266164;28;20068;-67
2023/09/11 21:42:36;;;;;;;15.02;10.88;;;;;;;;;;10267904;28;20069;-68
2023/09/11 21:47:32;;;;;;;14.20;11.02;;;;;;;;;;10274583;28;20049;-67
2023/09/11 21:52:29;;;;;;;14.20;10.35;;;;;;;;;;10256605;28;20477;-67
2023/09/11 21:57:26;;;;;;;13.60;11.52;;;;;;;;;;10276730;28;20052;-67
2023/09/11 22:02:22;;;;;;;17.17;10.70;;;;;;;;;;10263166;28;20071;-67
2023/09/11 22:07:19;;;;;;;17.77;11.40;;;;;;;;;;10268601;28;20052;-68
2023/09/11 22:12:15;;;;;;;14.63;11.32;;;;;;;;;;10254997;28;20048;-67
2023/09/11 22:17:11;;;;;;;12.98;11.27;;;;;;;;;;10264265;28;20047;-68
2023/09/11 22:22:08;;;;;;;13.55;10.95;;;;;;;;;;10263531;28;20127;-67
2023/09/11 22:27:04;;;;;;;18.20;12.82;;;;;;;;;;10267339;28;20060;-67
2023/09/11 22:32:16;;;;;;;14.07;12.57;;;;;;;;;;10268761;28;20056;-67
2023/09/11 22:37:12;;;;;;;20.75;12.55;;;;;;;;;;10264242;28;20060;-67
2023/09/11 22:42:09;;;;;;;17.50;13.73;;;;;;;;;;10263300;28;20052;-68
2023/09/11 22:47:05;;;;;;;21.88;17.27;;;;;;;;;;10268009;28;20087;-67
2023/09/11 22:52:01;;;;;;;19.73;16.23;;;;;;;;;;10264667;28;20060;-68
2023/09/11 22:56:58;;;;;;;20.27;17.42;;;;;;;;;;10269991;28;20071;-67
2023/09/11 23:01:54;;;;;;;26.77;18.75;;;;;;;;;;10234361;28;20045;-66
2023/09/11 23:06:51;;;;;;;25.55;20.20;;;;;;;;;;10272100;28;20152;-68
2023/09/11 23:11:47;;;;;;;24.63;20.67;;;;;;;;;;10252495;28;20056;-67
2023/09/11 23:16:44;;;;;;;29.65;22.42;;;;;;;;;;10267094;28;20674;-67
2023/09/11 23:21:40;;;;;;;32.03;27.98;;;;;;;;;;10270003;28;20041;-68
2023/09/11 23:26:36;;;;;;;38.42;30.73;;;;;;;;;;10263733;28;20063;-67
2023/09/11 23:31:33;;;;;;;49.80;37.10;;;;;;;;;;10268827;28;20060;-67
2023/09/11 23:36:33;;;;;;;46.88;38.75;;;;;;;;;;10268061;28;20049;-67
2023/09/11 23:41:30;;;;;;;49.83;39.75;;;;;;;;;;10255505;28;20064;-67
2023/09/11 23:46:28;;;;;;;53.20;41.67;;;;;;;;;;10260805;28;20065;-67
2023/09/11 23:51:26;;;;;;;51.58;40.88;;;;;;;;;;10254673;28;20053;-65
2023/09/11 23:56:22;;;;;;;49.90;40.22;;;;;;;;;;10263987;28;20065;-68
